Time;durP1;ratioP1;P1;durP2;ratioP2;P2;SDS_P1;SDS_P2;PMS_P1;PMS_P2;Temp;Humidity;BMP_temperature;BMP_pressure;BME280_temperature;BME280_humidity;BME280_pressure;Samples;Min_cycle;Max_cycle;Signal;HPM_P1;HPM_P2
2022/11/04 00:01:27;;;;;;;11.50;7.60;;;;;;;;;;5015469;28;20446;-64
2022/11/04 00:03:54;;;;;;;9.13;7.40;;;;;;;;;;5015304;28;20453;-64
2022/11/04 00:06:23;;;;;;;11.30;8.03;;;;;;;;;;5015539;28;20560;-64
2022/11/04 00:08:50;;;;;;;8.60;7.03;;;;;;;;;;5015459;28;20454;-64
2022/11/04 00:14:02;;;;;;;7.90;6.23;;;;;;;;;;5015301;28;20516;-64
2022/11/04 00:19:14;;;;;;;10.23;7.37;;;;;;;;;;5015241;28;20951;-64
2022/11/04 00:29:56;;;;;;;8.50;6.50;;;;;;;;;;5015076;28;20484;-66
2022/11/04 00:35:09;;;;;;;8.35;6.03;;;;;;;;;;5014842;28;20272;-65
2022/11/04 00:37:41;;;;;;;10.55;7.13;;;;;;;;;;5014924;28;20230;-66
2022/11/04 00:40:09;;;;;;;6.83;6.23;;;;;;;;;;5014726;28;20195;-66
2022/11/04 00:42:36;;;;;;;8.30;6.20;;;;;;;;;;5014791;28;20493;-66
2022/11/04 00:45:03;;;;;;;10.80;6.90;;;;;;;;;;5014520;28;20474;-65
2022/11/04 00:47:30;;;;;;;6.27;5.67;;;;;;;;;;5014425;28;20486;-66
2022/11/04 00:49:57;;;;;;;10.75;6.50;;;;;;;;;;5014710;28;20458;-65
2022/11/04 00:52:24;;;;;;;12.73;7.23;;;;;;;;;;5014716;28;20191;-65
2022/11/04 00:54:53;;;;;;;10.43;6.53;;;;;;;;;;5014542;28;20461;-66
2022/11/04 00:57:20;;;;;;;11.07;6.70;;;;;;;;;;5014471;28;20457;-66
2022/11/04 00:59:47;;;;;;;7.87;6.60;;;;;;;;;;5014348;28;20961;-66
2022/11/04 01:02:14;;;;;;;9.20;7.63;;;;;;;;;;5014581;28;20845;-66
2022/11/04 01:04:41;;;;;;;7.20;6.50;;;;;;;;;;5014515;28;20474;-66
2022/11/04 01:07:08;;;;;;;9.63;6.60;;;;;;;;;;5014091;28;20474;-65
2022/11/04 01:09:35;;;;;;;8.20;6.63;;;;;;;;;;5014210;28;20481;-66
2022/11/04 01:12:03;;;;;;;10.13;6.87;;;;;;;;;;5014109;28;20454;-64
2022/11/04 01:14:30;;;;;;;7.43;6.50;;;;;;;;;;5014066;28;20453;-64
2022/11/04 01:16:57;;;;;;;10.27;6.80;;;;;;;;;;5014225;28;20458;-64
2022/11/04 01:19:24;;;;;;;10.40;6.70;;;;;;;;;;5014263;28;20191;-64
2022/11/04 01:21:52;;;;;;;8.63;7.07;;;;;;;;;;5014083;28;20454;-64
2022/11/04 01:24:21;;;;;;;7.63;6.70;;;;;;;;;;5014047;28;20873;-64
2022/11/04 01:26:48;;;;;;;16.63;8.03;;;;;;;;;;5013865;28;20478;-65
2022/11/04 01:29:17;;;;;;;9.10;6.77;;;;;;;;;;5013761;28;20454;-64
2022/11/04 01:31:44;;;;;;;9.33;7.00;;;;;;;;;;5013956;28;20454;-65
2022/11/04 01:34:11;;;;;;;9.95;7.93;;;;;;;;;;5013889;28;20486;-65
2022/11/04 01:36:38;;;;;;;9.73;7.10;;;;;;;;;;5013672;28;20191;-65
2022/11/04 01:39:05;;;;;;;7.30;6.60;;;;;;;;;;5013713;28;20826;-64
2022/11/04 01:41:33;;;;;;;10.33;6.43;;;;;;;;;;5013601;28;20446;-64
2022/11/04 01:44:01;;;;;;;8.00;7.00;;;;;;;;;;5013419;28;20477;-66
2022/11/04 01:46:37;;;;;;;8.70;7.47;;;;;;;;;;5013667;28;20198;-64
2022/11/04 01:49:09;;;;;;;12.17;7.63;;;;;;;;;;5013626;28;20520;-64
2022/11/04 01:51:38;;;;;;;7.50;6.47;;;;;;;;;;5013571;28;20462;-64
2022/11/04 01:54:05;;;;;;;9.02;8.05;;;;;;;;;;5013535;28;20938;-64
2022/11/04 01:56:37;;;;;;;8.70;7.47;;;;;;;;;;5013665;28;20198;-64
2022/11/04 01:59:07;;;;;;;10.40;6.93;;;;;;;;;;5013568;28;20532;-64
2022/11/04 02:01:35;;;;;;;8.77;7.03;;;;;;;;;;5013502;28;20454;-64
2022/11/04 02:06:43;;;;;;;12.57;7.77;;;;;;;;;;5012382;28;20442;-64
2022/11/04 02:09:11;;;;;;;12.00;8.07;;;;;;;;;;5013479;28;20540;-64
2022/11/04 02:14:23;;;;;;;9.37;7.53;;;;;;;;;;5013329;28;20442;-65
2022/11/04 02:16:55;;;;;;;11.10;8.30;;;;;;;;;;5013143;28;20824;-64
2022/11/04 02:19:33;;;;;;;10.20;8.17;;;;;;;;;;5013113;28;20876;-64
2022/11/04 02:22:15;;;;;;;13.07;10.10;;;;;;;;;;5013119;28;20454;-64
2022/11/04 02:25:02;;;;;;;10.03;8.43;;;;;;;;;;5000922;28;20869;-64
2022/11/04 02:27:33;;;;;;;11.97;7.90;;;;;;;;;;5012936;28;20821;-64
2022/11/04 02:30:04;;;;;;;15.90;9.30;;;;;;;;;;5013270;28;20486;-64
2022/11/04 02:32:34;;;;;;;12.20;8.07;;;;;;;;;;5013113;28;20799;-64
2022/11/04 02:35:04;;;;;;;12.45;8.23;;;;;;;;;;5013123;28;20450;-64
2022/11/04 02:37:34;;;;;;;9.80;7.70;;;;;;;;;;5012868;28;20665;-64
2022/11/04 02:40:05;;;;;;;11.80;7.93;;;;;;;;;;5013110;28;20925;-64
2022/11/04 02:42:38;;;;;;;11.73;8.27;;;;;;;;;;5013194;28;20478;-64
2022/11/04 02:45:13;;;;;;;10.73;8.43;;;;;;;;;;5012797;28;20473;-64
2022/11/04 02:47:44;;;;;;;10.40;8.97;;;;;;;;;;5012727;28;20572;-64
2022/11/04 02:50:13;;;;;;;9.67;7.63;;;;;;;;;;5012830;28;20446;-64
2022/11/04 02:52:42;;;;;;;12.33;8.53;;;;;;;;;;5012759;28;20450;-64
2022/11/04 02:55:13;;;;;;;10.70;9.27;;;;;;;;;;5013635;28;21039;-64
2022/11/04 02:57:41;;;;;;;14.00;7.80;;;;;;;;;;5016624;28;20939;-64
2022/11/04 03:00:12;;;;;;;13.77;9.50;;;;;;;;;;5016552;28;20441;-65
2022/11/04 03:02:41;;;;;;;12.07;9.43;;;;;;;;;;5016671;28;20538;-64
2022/11/04 03:05:09;;;;;;;11.07;9.20;;;;;;;;;;5016455;28;20203;-64
2022/11/04 03:07:38;;;;;;;13.73;9.30;;;;;;;;;;5016296;28;21011;-64
2022/11/04 03:10:07;;;;;;;13.17;9.20;;;;;;;;;;5016365;28;20485;-64
2022/11/04 03:12:37;;;;;;;13.17;9.50;;;;;;;;;;5016482;28;20456;-64
2022/11/04 03:15:06;;;;;;;11.90;8.70;;;;;;;;;;5016333;28;20450;-64
2022/11/04 03:17:36;;;;;;;9.50;8.60;;;;;;;;;;5016223;28;20961;-64
2022/11/04 03:20:06;;;;;;;12.10;9.07;;;;;;;;;;5016241;28;20457;-64
2022/11/04 03:22:34;;;;;;;11.77;8.50;;;;;;;;;;5016334;28;20454;-64
2022/11/04 03:25:01;;;;;;;12.47;9.00;;;;;;;;;;5016176;28;20450;-64
2022/11/04 03:27:33;;;;;;;11.90;8.67;;;;;;;;;;5016009;28;20552;-64
2022/11/04 03:30:02;;;;;;;16.93;10.20;;;;;;;;;;5016076;28;20450;-64
2022/11/04 03:32:35;;;;;;;13.80;9.10;;;;;;;;;;5015920;28;20449;-64
2022/11/04 03:35:03;;;;;;;12.17;8.43;;;;;;;;;;5016147;28;20450;-64
2022/11/04 03:37:30;;;;;;;11.90;9.33;;;;;;;;;;5016025;28;20454;-65
2022/11/04 03:39:59;;;;;;;15.47;9.33;;;;;;;;;;5015965;28;20454;-64
2022/11/04 03:42:27;;;;;;;15.33;10.83;;;;;;;;;;5015793;28;20486;-64
2022/11/04 03:44:56;;;;;;;13.87;9.50;;;;;;;;;;5015687;28;20478;-64
2022/11/04 03:47:24;;;;;;;12.30;10.10;;;;;;;;;;5015775;28;20454;-64
2022/11/04 03:49:52;;;;;;;12.90;9.30;;;;;;;;;;5015602;28;20481;-64
2022/11/04 03:52:20;;;;;;;9.83;8.27;;;;;;;;;;5015725;28;20841;-64
2022/11/04 03:54:48;;;;;;;11.03;9.17;;;;;;;;;;5015549;28;20466;-64
2022/11/04 03:57:20;;;;;;;14.53;9.33;;;;;;;;;;5015545;28;20461;-65
2022/11/04 04:00:06;;;;;;;13.70;8.77;;;;;;;;;;5015845;28;20465;-64
2022/11/04 04:02:38;;;;;;;11.38;8.52;;;;;;;;;;5015597;28;20553;-64
2022/11/04 04:05:08;;;;;;;13.83;9.20;;;;;;;;;;5015680;28;20234;-65
2022/11/04 04:07:39;;;;;;;10.23;8.73;;;;;;;;;;5015410;28;20933;-65
2022/11/04 04:10:37;;;;;;;11.80;9.30;;;;;;;;;;5015302;28;20529;-65
2022/11/04 04:12:59;;;;;;;11.27;8.40;;;;;;;;;;5015132;28;20534;-65
2022/11/04 04:15:28;;;;;;;13.97;8.57;;;;;;;;;;5015277;28;20458;-65
2022/11/04 04:17:56;;;;;;;12.83;9.33;;;;;;;;;;5015162;28;20454;-65
2022/11/04 04:20:24;;;;;;;13.10;8.60;;;;;;;;;;5015117;28;20457;-65
2022/11/04 04:22:56;;;;;;;13.83;9.13;;;;;;;;;;5015199;28;20501;-65
2022/11/04 04:28:10;;;;;;;13.32;9.82;;;;;;;;;;5015069;28;20844;-65
2022/11/04 04:30:37;;;;;;;11.17;10.00;;;;;;;;;;5014980;28;20202;-65
2022/11/04 04:33:07;;;;;;;11.53;9.20;;;;;;;;;;5015159;28;20577;-65
2022/11/04 04:35:43;;;;;;;14.93;9.93;;;;;;;;;;5015056;28;20463;-65
2022/11/04 04:46:31;;;;;;;11.30;9.40;;;;;;;;;;5014755;28;20449;-65
2022/11/04 04:49:04;;;;;;;17.97;9.03;;;;;;;;;;5014463;28;20480;-65
2022/11/04 04:51:32;;;;;;;16.00;9.53;;;;;;;;;;5014758;28;20454;-65
2022/11/04 04:54:00;;;;;;;15.37;10.20;;;;;;;;;;5014591;28;20532;-65
2022/11/04 04:56:27;;;;;;;14.93;10.63;;;;;;;;;;5014701;28;20454;-65
2022/11/04 04:58:54;;;;;;;12.93;9.63;;;;;;;;;;5014488;28;20489;-66
2022/11/04 05:01:22;;;;;;;15.93;10.90;;;;;;;;;;5014358;28;20818;-65
2022/11/04 05:03:49;;;;;;;18.30;11.47;;;;;;;;;;5014304;28;20454;-65
2022/11/04 05:06:16;;;;;;;13.70;10.17;;;;;;;;;;5014457;28;20450;-65
2022/11/04 05:08:43;;;;;;;13.73;10.10;;;;;;;;;;5014318;28;20505;-65
2022/11/04 05:11:11;;;;;;;13.97;10.13;;;;;;;;;;5014185;28;20454;-65
2022/11/04 05:13:38;;;;;;;15.10;9.73;;;;;;;;;;5014200;28;20449;-65
2022/11/04 05:16:06;;;;;;;12.70;9.63;;;;;;;;;;5013930;28;20988;-66
2022/11/04 05:18:34;;;;;;;13.07;10.23;;;;;;;;;;5013850;28;20489;-64
2022/11/04 05:21:03;;;;;;;9.90;8.90;;;;;;;;;;5014151;28;20461;-65
2022/11/04 05:23:30;;;;;;;13.03;10.10;;;;;;;;;;5014222;28;20451;-65
2022/11/04 05:25:58;;;;;;;14.75;10.48;;;;;;;;;;5013980;28;20504;-65
2022/11/04 05:28:27;;;;;;;15.60;9.97;;;;;;;;;;5013785;28;20218;-65
2022/11/04 05:30:54;;;;;;;16.77;10.10;;;;;;;;;;5013829;28;20450;-65
2022/11/04 05:33:21;;;;;;;16.37;9.87;;;;;;;;;;5013973;28;20453;-65
2022/11/04 05:35:49;;;;;;;12.37;9.27;;;;;;;;;;5013727;28;20450;-66
2022/11/04 05:38:16;;;;;;;13.15;10.27;;;;;;;;;;5013733;28;20964;-65
2022/11/04 05:40:43;;;;;;;12.15;9.77;;;;;;;;;;5013607;28;20662;-65
2022/11/04 05:43:10;;;;;;;16.37;9.80;;;;;;;;;;5013527;28;20614;-66
2022/11/04 05:45:39;;;;;;;12.33;9.57;;;;;;;;;;5013433;28;20474;-65
2022/11/04 05:48:06;;;;;;;11.57;9.63;;;;;;;;;;5013719;28;20544;-65
2022/11/04 05:50:34;;;;;;;10.93;9.75;;;;;;;;;;5013619;28;20548;-65
2022/11/04 05:53:03;;;;;;;14.03;10.50;;;;;;;;;;5013529;28;20195;-65
2022/11/04 05:55:32;;;;;;;13.93;10.87;;;;;;;;;;5013499;28;20964;-64
2022/11/04 05:58:01;;;;;;;18.43;13.90;;;;;;;;;;5013905;28;20938;-65
2022/11/04 06:00:28;;;;;;;13.27;10.60;;;;;;;;;;5013302;28;20454;-65
2022/11/04 06:02:57;;;;;;;16.00;11.77;;;;;;;;;;5013531;28;20516;-65
2022/11/04 06:05:24;;;;;;;13.38;11.93;;;;;;;;;;5013401;28;20202;-65
2022/11/04 06:07:51;;;;;;;17.95;12.57;;;;;;;;;;5013214;28;20461;-65
2022/11/04 06:10:18;;;;;;;13.73;11.83;;;;;;;;;;5013132;28;20214;-65
2022/11/04 06:12:45;;;;;;;19.63;12.50;;;;;;;;;;5013451;28;20834;-64
2022/11/04 06:15:12;;;;;;;15.70;12.63;;;;;;;;;;5013343;28;20870;-65
2022/11/04 06:17:39;;;;;;;15.23;12.50;;;;;;;;;;5013158;28;20953;-65
2022/11/04 06:20:08;;;;;;;12.37;11.10;;;;;;;;;;5013219;28;20512;-65
2022/11/04 06:22:35;;;;;;;14.23;10.70;;;;;;;;;;5012935;28;20513;-66
2022/11/04 06:25:02;;;;;;;14.53;10.43;;;;;;;;;;5012891;28;20480;-66
2022/11/04 06:27:29;;;;;;;12.27;10.03;;;;;;;;;;5013157;28;20817;-65
2022/11/04 06:29:56;;;;;;;16.65;11.35;;;;;;;;;;5012033;28;20621;-66
2022/11/04 06:32:23;;;;;;;14.13;11.80;;;;;;;;;;5013096;28;20199;-66
2022/11/04 06:34:50;;;;;;;18.88;11.15;;;;;;;;;;5013019;28;20484;-66
2022/11/04 06:37:18;;;;;;;14.33;10.97;;;;;;;;;;5012924;28;20195;-66
2022/11/04 06:39:45;;;;;;;14.70;11.10;;;;;;;;;;5013129;28;20532;-66
2022/11/04 06:42:12;;;;;;;15.47;11.97;;;;;;;;;;5013090;28;20545;-66
2022/11/04 06:44:39;;;;;;;14.82;11.95;;;;;;;;;;5012590;28;20494;-65
2022/11/04 06:47:06;;;;;;;15.23;10.55;;;;;;;;;;5012972;28;20197;-65
2022/11/04 06:49:33;;;;;;;10.30;9.30;;;;;;;;;;5012781;28;20261;-65
2022/11/04 06:52:01;;;;;;;12.50;10.10;;;;;;;;;;5012735;28;20865;-65
2022/11/04 06:54:29;;;;;;;14.43;11.67;;;;;;;;;;5012779;28;20460;-65
2022/11/04 06:56:56;;;;;;;17.13;13.10;;;;;;;;;;5012635;28;20949;-65
2022/11/04 06:59:23;;;;;;;13.03;11.77;;;;;;;;;;5012710;28;20860;-65
2022/11/04 07:01:51;;;;;;;14.83;11.87;;;;;;;;;;5012611;28;20450;-66
2022/11/04 07:04:18;;;;;;;13.37;11.97;;;;;;;;;;5012613;28;20480;-65
2022/11/04 07:06:46;;;;;;;12.10;10.10;;;;;;;;;;5012517;28;20486;-65
2022/11/04 07:09:13;;;;;;;14.10;12.37;;;;;;;;;;5012608;28;20509;-65
2022/11/04 07:11:42;;;;;;;12.73;10.20;;;;;;;;;;5012536;28;20814;-65
2022/11/04 07:14:10;;;;;;;16.03;12.23;;;;;;;;;;5012615;28;20542;-65
2022/11/04 07:16:37;;;;;;;13.63;10.27;;;;;;;;;;5012580;28;20454;-65
2022/11/04 07:19:04;;;;;;;12.43;11.23;;;;;;;;;;5012503;28;20191;-65
2022/11/04 07:21:32;;;;;;;13.37;11.33;;;;;;;;;;5012376;28;20486;-65
2022/11/04 07:23:59;;;;;;;12.90;10.90;;;;;;;;;;5012668;28;20854;-65
2022/11/04 07:26:26;;;;;;;12.50;11.20;;;;;;;;;;5012531;28;20461;-65
2022/11/04 07:28:54;;;;;;;13.93;11.90;;;;;;;;;;5012398;28;20461;-66
2022/11/04 07:31:22;;;;;;;13.80;11.80;;;;;;;;;;5012367;28;20705;-66
2022/11/04 07:33:50;;;;;;;11.52;10.35;;;;;;;;;;5012547;28;20618;-67
2022/11/04 07:36:17;;;;;;;12.33;11.17;;;;;;;;;;5012388;28;20958;-66
2022/11/04 07:38:44;;;;;;;11.63;9.20;;;;;;;;;;5012258;28;20454;-66
2022/11/04 07:41:12;;;;;;;14.00;11.57;;;;;;;;;;5013004;28;20532;-66
2022/11/04 07:43:39;;;;;;;14.13;11.67;;;;;;;;;;5015715;28;20581;-66
2022/11/04 07:46:09;;;;;;;19.00;13.20;;;;;;;;;;5015779;28;20959;-66
2022/11/04 07:48:36;;;;;;;14.67;11.63;;;;;;;;;;5016006;28;20457;-66
2022/11/04 07:51:04;;;;;;;13.70;11.27;;;;;;;;;;5015670;28;20489;-66
2022/11/04 07:53:31;;;;;;;14.63;11.97;;;;;;;;;;5015544;28;20955;-66
2022/11/04 07:55:59;;;;;;;14.30;11.30;;;;;;;;;;5015631;28;20454;-67
2022/11/04 07:58:27;;;;;;;15.47;11.20;;;;;;;;;;5015647;28;20938;-66
2022/11/04 08:00:59;;;;;;;14.95;11.93;;;;;;;;;;5015365;28;20483;-66
2022/11/04 08:03:30;;;;;;;14.33;11.90;;;;;;;;;;5015533;28;20278;-67
2022/11/04 08:05:57;;;;;;;17.27;12.47;;;;;;;;;;5015864;28;20841;-67
2022/11/04 08:08:24;;;;;;;17.20;11.48;;;;;;;;;;5015452;28;20466;-67
2022/11/04 08:10:56;;;;;;;14.50;11.80;;;;;;;;;;5015304;28;20294;-67
2022/11/04 08:13:23;;;;;;;14.57;12.50;;;;;;;;;;5015143;28;20465;-67
2022/11/04 08:15:50;;;;;;;14.57;12.97;;;;;;;;;;5013181;28;20541;-67
2022/11/04 08:18:17;;;;;;;15.43;13.00;;;;;;;;;;5015139;28;20961;-65
2022/11/04 08:20:49;;;;;;;14.10;11.83;;;;;;;;;;5014838;28;20937;-66
2022/11/04 08:23:16;;;;;;;13.93;12.52;;;;;;;;;;5015187;28;20461;-68
2022/11/04 08:25:44;;;;;;;13.40;11.03;;;;;;;;;;5014944;28;20617;-66
2022/11/04 08:28:16;;;;;;;12.20;11.00;;;;;;;;;;5014631;28;20450;-69
2022/11/04 08:30:43;;;;;;;12.73;11.47;;;;;;;;;;5014873;28;20815;-73
2022/11/04 08:33:10;;;;;;;16.87;12.27;;;;;;;;;;5015044;28;20961;-74
2022/11/04 08:35:40;;;;;;;18.93;12.63;;;;;;;;;;5014810;28;20860;-68
2022/11/04 08:38:08;;;;;;;14.20;11.80;;;;;;;;;;5014910;28;20482;-63
2022/11/04 08:40:36;;;;;;;13.75;11.18;;;;;;;;;;5014557;28;20450;-66
2022/11/04 08:43:03;;;;;;;17.70;12.10;;;;;;;;;;5014810;28;20528;-65
2022/11/04 08:45:31;;;;;;;16.33;11.73;;;;;;;;;;5014244;28;20474;-77
2022/11/04 08:47:57;;;;;;;15.18;13.57;;;;;;;;;;5013626;28;20455;-62
2022/11/04 08:50:26;;;;;;;19.23;12.70;;;;;;;;;;5014475;28;20306;-69
2022/11/04 08:52:53;;;;;;;17.27;13.57;;;;;;;;;;5013554;28;20497;-67
2022/11/04 08:55:33;;;;;;;16.27;14.57;;;;;;;;;;5013134;28;20996;-76
2022/11/04 08:58:00;;;;;;;19.70;12.70;;;;;;;;;;5014732;28;20464;-68
2022/11/04 09:00:27;;;;;;;14.55;12.82;;;;;;;;;;5013699;28;20942;-65
2022/11/04 09:02:54;;;;;;;14.10;12.37;;;;;;;;;;5013502;28;20183;-64
2022/11/04 09:05:21;;;;;;;14.82;12.65;;;;;;;;;;5013461;28;20842;-66
2022/11/04 09:07:49;;;;;;;13.53;11.70;;;;;;;;;;5013769;28;20717;-67
2022/11/04 09:10:16;;;;;;;17.90;12.07;;;;;;;;;;5013778;28;20837;-70
2022/11/04 09:12:45;;;;;;;12.55;10.50;;;;;;;;;;5013847;28;20454;-70
2022/11/04 09:15:18;;;;;;;12.80;11.60;;;;;;;;;;5014029;28;20195;-63
2022/11/04 09:17:45;;;;;;;11.77;10.50;;;;;;;;;;5013843;28;20454;-66
2022/11/04 09:20:12;;;;;;;14.60;10.90;;;;;;;;;;5014226;28;20876;-63
2022/11/04 09:22:39;;;;;;;15.13;10.80;;;;;;;;;;5013210;28;20457;-65
2022/11/04 09:25:08;;;;;;;12.07;10.97;;;;;;;;;;5013756;28;20888;-64
2022/11/04 09:27:35;;;;;;;12.90;11.53;;;;;;;;;;5013644;28;20455;-67
2022/11/04 09:30:03;;;;;;;14.60;11.27;;;;;;;;;;5013680;28;21013;-65
2022/11/04 09:32:31;;;;;;;11.17;10.07;;;;;;;;;;5013530;28;20461;-67
2022/11/04 09:34:59;;;;;;;11.83;10.63;;;;;;;;;;5013816;28;20474;-64
2022/11/04 09:37:26;;;;;;;11.57;10.50;;;;;;;;;;5013234;28;20455;-69
2022/11/04 09:39:53;;;;;;;10.10;9.00;;;;;;;;;;5013632;28;20880;-66
2022/11/04 09:42:29;;;;;;;12.03;9.70;;;;;;;;;;5012807;28;20451;-64
2022/11/04 09:44:57;;;;;;;10.37;9.33;;;;;;;;;;5011745;28;20478;-68
2022/11/04 09:47:26;;;;;;;9.47;8.53;;;;;;;;;;5013593;28;20484;-68
2022/11/04 09:49:56;;;;;;;9.97;8.87;;;;;;;;;;5013350;28;20461;-62
2022/11/04 09:52:25;;;;;;;9.33;8.20;;;;;;;;;;5013517;28;20500;-66
2022/11/04 09:54:57;;;;;;;8.73;7.80;;;;;;;;;;5013439;28;20450;-67
2022/11/04 09:57:24;;;;;;;10.17;7.70;;;;;;;;;;5013232;28;20458;-70
2022/11/04 09:59:51;;;;;;;8.38;7.55;;;;;;;;;;5013417;28;20542;-75
2022/11/04 10:02:40;;;;;;;10.80;6.93;;;;;;;;;;5012655;28;20187;-69
2022/11/04 10:05:12;;;;;;;14.00;8.00;;;;;;;;;;5013133;28;20492;-68
2022/11/04 10:07:50;;;;;;;7.80;7.03;;;;;;;;;;5013306;28;20478;-69
2022/11/04 10:10:20;;;;;;;7.97;7.17;;;;;;;;;;5013350;28;20477;-62
2022/11/04 10:13:00;;;;;;;7.90;7.10;;;;;;;;;;5013114;28;20504;-62
2022/11/04 10:15:41;;;;;;;7.73;6.43;;;;;;;;;;5013150;28;20504;-62
2022/11/04 10:18:14;;;;;;;8.00;7.20;;;;;;;;;;5013570;28;20461;-62
2022/11/04 10:20:48;;;;;;;8.50;7.60;;;;;;;;;;5012652;28;20490;-63
2022/11/04 10:23:21;;;;;;;7.40;6.80;;;;;;;;;;5012950;28;20195;-63
2022/11/04 10:25:49;;;;;;;8.13;6.80;;;;;;;;;;5013181;28;20454;-65
2022/11/04 10:28:17;;;;;;;11.30;6.00;;;;;;;;;;5012952;28;20450;-63
2022/11/04 10:30:46;;;;;;;9.07;6.57;;;;;;;;;;5012889;28;20478;-63
2022/11/04 10:33:17;;;;;;;6.83;6.17;;;;;;;;;;5013118;28;20458;-65
2022/11/04 10:35:49;;;;;;;6.40;5.90;;;;;;;;;;5012944;28;20549;-65
2022/11/04 10:38:18;;;;;;;7.97;5.57;;;;;;;;;;5012970;28;20454;-62
2022/11/04 10:40:47;;;;;;;5.97;5.37;;;;;;;;;;5012597;28;20973;-62
2022/11/04 10:43:16;;;;;;;6.33;5.73;;;;;;;;;;5012491;28;20478;-63
2022/11/04 10:45:49;;;;;;;9.13;6.77;;;;;;;;;;5013004;28;20450;-62
2022/11/04 10:48:22;;;;;;;6.23;5.63;;;;;;;;;;5012286;28;20489;-63
2022/11/04 10:50:52;;;;;;;7.20;6.07;;;;;;;;;;5012844;28;20473;-65
2022/11/04 10:53:20;;;;;;;6.73;6.03;;;;;;;;;;5012017;28;20464;-63
2022/11/04 10:55:49;;;;;;;7.63;6.10;;;;;;;;;;5012233;28;20934;-62
2022/11/04 10:58:20;;;;;;;7.27;6.57;;;;;;;;;;5012355;28;20528;-62
2022/11/04 11:00:47;;;;;;;6.37;5.77;;;;;;;;;;5012807;28;20519;-61
2022/11/04 11:03:26;;;;;;;6.00;5.50;;;;;;;;;;5012528;28;20526;-61
2022/11/04 11:05:54;;;;;;;7.20;6.60;;;;;;;;;;5012691;28;20445;-61
2022/11/04 11:08:28;;;;;;;10.33;6.20;;;;;;;;;;5012493;28;21027;-61
2022/11/04 11:10:56;;;;;;;6.57;6.00;;;;;;;;;;5012432;28;20598;-63
2022/11/04 11:13:25;;;;;;;7.23;6.20;;;;;;;;;;5012759;28;20466;-63
2022/11/04 11:16:05;;;;;;;6.95;6.32;;;;;;;;;;5012953;28;20504;-61
2022/11/04 11:18:33;;;;;;;7.53;6.53;;;;;;;;;;5016019;28;20458;-65
2022/11/04 11:21:12;;;;;;;7.13;6.50;;;;;;;;;;5015603;28;20278;-67
2022/11/04 11:23:42;;;;;;;6.73;6.13;;;;;;;;;;5016089;28;20524;-60
2022/11/04 11:26:10;;;;;;;7.40;6.80;;;;;;;;;;5016411;28;20849;-64
2022/11/04 11:28:39;;;;;;;8.17;7.37;;;;;;;;;;5016183;28;20606;-63
2022/11/04 11:31:12;;;;;;;9.63;7.10;;;;;;;;;;5015615;28;20477;-60
2022/11/04 11:33:41;;;;;;;7.67;6.97;;;;;;;;;;5016278;28;20787;-61
2022/11/04 11:36:11;;;;;;;9.20;7.30;;;;;;;;;;5006127;28;20501;-62
2022/11/04 11:38:39;;;;;;;7.67;6.57;;;;;;;;;;5007006;28;20196;-71
2022/11/04 11:41:08;;;;;;;7.77;6.87;;;;;;;;;;5015589;28;20565;-73
2022/11/04 11:43:37;;;;;;;8.00;7.37;;;;;;;;;;5015431;28;21038;-72
2022/11/04 11:46:06;;;;;;;7.17;6.50;;;;;;;;;;5016015;28;20549;-72
2022/11/04 11:48:34;;;;;;;7.63;6.82;;;;;;;;;;5016022;28;20548;-72
2022/11/04 11:51:03;;;;;;;9.10;7.57;;;;;;;;;;5015580;28;20226;-72
2022/11/04 11:53:33;;;;;;;8.83;7.93;;;;;;;;;;5015641;28;20506;-73
2022/11/04 11:56:08;;;;;;;8.97;8.07;;;;;;;;;;5015627;28;20450;-72
2022/11/04 11:58:38;;;;;;;7.50;6.90;;;;;;;;;;5015862;28;20458;-73
2022/11/04 12:01:09;;;;;;;8.27;7.57;;;;;;;;;;5015694;28;20462;-73
2022/11/04 12:03:39;;;;;;;7.70;7.18;;;;;;;;;;5015633;28;20454;-72
2022/11/04 12:06:17;;;;;;;7.67;7.07;;;;;;;;;;5015473;28;20195;-72
2022/11/04 12:08:59;;;;;;;8.47;7.63;;;;;;;;;;5015409;28;20464;-73
2022/11/04 12:11:28;;;;;;;9.13;8.07;;;;;;;;;;5015463;28;20493;-73
2022/11/04 12:14:00;;;;;;;8.35;7.47;;;;;;;;;;5015183;28;20512;-73
2022/11/04 12:16:33;;;;;;;8.90;8.00;;;;;;;;;;5015275;28;20230;-72
2022/11/04 12:19:05;;;;;;;9.03;7.47;;;;;;;;;;5015339;28;20644;-72
2022/11/04 12:21:36;;;;;;;8.03;7.30;;;;;;;;;;5015652;28;20450;-73
2022/11/04 12:24:09;;;;;;;9.10;8.20;;;;;;;;;;5015562;28;20451;-72
2022/11/04 12:26:40;;;;;;;8.50;7.87;;;;;;;;;;5015158;28;20545;-72
2022/11/04 12:29:18;;;;;;;9.05;8.20;;;;;;;;;;5014065;28;20526;-72
2022/11/04 12:31:51;;;;;;;9.40;7.80;;;;;;;;;;5015051;28;20262;-72
2022/11/04 12:34:27;;;;;;;9.30;8.07;;;;;;;;;;5015182;28;20458;-72
2022/11/04 12:37:03;;;;;;;11.50;10.40;;;;;;;;;;5015026;28;20849;-72
2022/11/04 12:39:38;;;;;;;9.25;8.45;;;;;;;;;;5014766;28;20921;-72
2022/11/04 12:42:12;;;;;;;10.20;9.30;;;;;;;;;;5014463;28;20195;-72
2022/11/04 12:44:42;;;;;;;9.70;8.90;;;;;;;;;;5014532;28;20488;-72
2022/11/04 12:47:13;;;;;;;9.00;8.30;;;;;;;;;;5014730;28;20453;-72
2022/11/04 12:49:52;;;;;;;12.10;8.40;;;;;;;;;;5014726;28;20485;-73
2022/11/04 12:52:27;;;;;;;8.70;8.00;;;;;;;;;;5014434;28;20482;-72
2022/11/04 12:54:59;;;;;;;9.00;8.10;;;;;;;;;;5014632;28;21003;-72
2022/11/04 12:57:32;;;;;;;9.20;8.27;;;;;;;;;;5014692;28;20541;-72
2022/11/04 13:00:09;;;;;;;9.07;8.20;;;;;;;;;;5014634;28;20964;-72
2022/11/04 13:02:38;;;;;;;9.47;8.77;;;;;;;;;;5014333;28;20465;-72
2022/11/04 13:05:11;;;;;;;9.50;8.60;;;;;;;;;;5014218;28;20454;-72
2022/11/04 13:07:42;;;;;;;9.03;8.30;;;;;;;;;;5014108;28;20446;-72
2022/11/04 13:10:17;;;;;;;11.13;10.13;;;;;;;;;;5014417;28;20946;-73
2022/11/04 13:12:45;;;;;;;9.95;9.05;;;;;;;;;;5014314;28;20488;-72
2022/11/04 13:15:15;;;;;;;9.17;8.37;;;;;;;;;;5014171;28;20202;-73
2022/11/04 13:17:46;;;;;;;11.60;9.23;;;;;;;;;;5014101;28;20855;-72
2022/11/04 13:20:17;;;;;;;9.80;8.90;;;;;;;;;;5014270;28;20450;-73
2022/11/04 13:22:46;;;;;;;11.23;10.03;;;;;;;;;;5014216;28;20598;-73
2022/11/04 13:25:15;;;;;;;14.97;11.50;;;;;;;;;;5013996;28;20512;-72
2022/11/04 13:27:44;;;;;;;12.00;10.80;;;;;;;;;;5013777;28;20485;-72
2022/11/04 13:30:20;;;;;;;13.37;12.07;;;;;;;;;;5014082;28;20450;-72
2022/11/04 13:32:49;;;;;;;10.50;9.60;;;;;;;;;;5014093;28;20572;-72
2022/11/04 13:35:19;;;;;;;10.40;9.40;;;;;;;;;;5013834;28;20553;-71
2022/11/04 13:37:53;;;;;;;12.43;11.27;;;;;;;;;;5013764;28;20486;-72
2022/11/04 13:40:23;;;;;;;11.67;10.37;;;;;;;;;;5013345;28;20446;-72
2022/11/04 13:43:36;;;;;;;12.60;10.97;;;;;;;;;;5013534;28;20945;-72
2022/11/04 13:45:49;;;;;;;11.13;10.17;;;;;;;;;;5013381;28;20956;-72
2022/11/04 13:48:18;;;;;;;11.07;9.87;;;;;;;;;;5013585;28;20975;-72
2022/11/04 13:50:45;;;;;;;12.00;11.03;;;;;;;;;;5013403;28;20549;-72
2022/11/04 13:53:14;;;;;;;12.30;11.20;;;;;;;;;;5013426;28;20489;-72
2022/11/04 13:55:48;;;;;;;11.17;10.27;;;;;;;;;;5013578;28;20454;-72
2022/11/04 13:58:20;;;;;;;12.20;11.10;;;;;;;;;;5013554;28;20833;-72
2022/11/04 14:01:02;;;;;;;12.50;11.43;;;;;;;;;;5013274;28;20777;-72
2022/11/04 14:03:39;;;;;;;12.18;10.98;;;;;;;;;;5012647;28;20512;-71
2022/11/04 14:06:07;;;;;;;10.73;9.73;;;;;;;;;;5013367;28;20191;-72
2022/11/04 14:08:36;;;;;;;14.65;11.63;;;;;;;;;;5013344;28;20513;-72
2022/11/04 14:11:07;;;;;;;12.50;11.30;;;;;;;;;;5013158;28;20222;-72
2022/11/04 14:13:46;;;;;;;11.60;10.60;;;;;;;;;;5013166;28;20545;-72
2022/11/04 14:16:33;;;;;;;11.67;10.50;;;;;;;;;;5013540;28;20841;-72
2022/11/04 14:19:22;;;;;;;11.40;10.32;;;;;;;;;;5013024;28;20458;-72
2022/11/04 14:22:10;;;;;;;14.53;10.93;;;;;;;;;;5013175;28;20285;-72
2022/11/04 14:24:37;;;;;;;11.63;10.50;;;;;;;;;;5008600;28;20473;-72
2022/11/04 14:27:04;;;;;;;12.00;10.90;;;;;;;;;;5013184;28;20453;-72
2022/11/04 14:29:32;;;;;;;10.97;9.83;;;;;;;;;;5013117;28;20545;-72
2022/11/04 14:32:00;;;;;;;12.10;11.00;;;;;;;;;;5013088;28;20489;-72
2022/11/04 14:34:30;;;;;;;12.43;11.33;;;;;;;;;;5013001;28;20476;-73
2022/11/04 14:36:58;;;;;;;12.67;11.57;;;;;;;;;;5013139;28;20461;-72
2022/11/04 14:39:29;;;;;;;12.27;11.17;;;;;;;;;;5013048;28;20490;-72
2022/11/04 14:41:57;;;;;;;10.90;9.80;;;;;;;;;;5012957;28;20949;-72
2022/11/04 14:44:30;;;;;;;12.27;11.17;;;;;;;;;;5012709;28;21022;-72
2022/11/04 14:46:59;;;;;;;13.30;12.10;;;;;;;;;;5012689;28;20533;-72
2022/11/04 14:49:33;;;;;;;12.10;11.00;;;;;;;;;;5013020;28;20446;-72
2022/11/04 14:52:00;;;;;;;14.63;12.73;;;;;;;;;;5015558;28;20521;-72
2022/11/04 14:54:30;;;;;;;14.27;12.87;;;;;;;;;;5016719;28;20457;-72
2022/11/04 14:57:07;;;;;;;13.63;12.25;;;;;;;;;;5016661;28;20457;-73
2022/11/04 14:59:34;;;;;;;13.23;12.03;;;;;;;;;;5016684;28;20826;-72
2022/11/04 15:02:02;;;;;;;12.23;11.13;;;;;;;;;;5016906;28;20488;-72
2022/11/04 15:04:31;;;;;;;12.47;11.27;;;;;;;;;;5016635;28;20557;-72
2022/11/04 15:06:59;;;;;;;13.47;12.07;;;;;;;;;;5016564;28;20849;-72
2022/11/04 15:09:27;;;;;;;13.47;12.27;;;;;;;;;;5016686;28;20457;-72
2022/11/04 15:14:45;;;;;;;13.70;12.30;;;;;;;;;;5016745;28;20218;-73
2022/11/04 15:17:17;;;;;;;14.38;13.05;;;;;;;;;;5016345;28;21007;-72
2022/11/04 15:19:48;;;;;;;19.40;17.50;;;;;;;;;;5016516;28;20222;-72